• Join FlightAware (Why Join?)
  • Login
  • US Flag 
08:10AM EDT


 

Airport Tracker/Info


-or-


 

Live Flight TrackerFlight Track Log ✈ CPT7773 ✈ 08-Oct-2013 ✈ KCOD - KCPR

Flight Track Log - Related Links

Times and Time Zones

All times are in EDT time to prevent confusion due to time zone crossing. See the CPT7773 flight status page for this flight to view local times or setup timezone preferences in your user account.

Time Position Orientation Groundspeed Altitude Reporting Facility
EDT Latitude Longitude Course Direction KTS MPH feet Rate Location/Type
08:08PM 44.4164 -108.8300 129° Southeast 137 158 10,700  Level Salt Lake Center
08:09PM 44.3922 -108.7881 129° Southeast 138 159 11,500 660 Climbing Salt Lake Center
08:10PM 44.3686 -108.7511 132° Southeast 135 155 12,100 240 Climbing Salt Lake Center
08:11PM 44.3342 -108.6986 133° Southeast 140 161 12,000 -60 Descending Salt Lake Center
08:12PM 44.3031 -108.6456 129° Southeast 156 180 12,000  Level Salt Lake Center
08:13PM 44.2725 -108.5919 129° Southeast 167 192 12,000  Level Salt Lake Center
08:14PM 44.2419 -108.5428 131° Southeast 170 196 12,000  Level Salt Lake Center
08:15PM 44.2111 -108.4953 132° Southeast 169 194 12,000  Level Salt Lake Center
08:16PM 44.1811 -108.4461 130° Southeast 167 192 12,000  Level Salt Lake Center
08:17PM 44.1500 -108.3975 132° Southeast 168 193 12,000  Level Salt Lake Center
08:18PM 44.1189 -108.3486 132° Southeast 169 194 12,000  Level Salt Lake Center
08:19PM 44.0819 -108.2875 130° Southeast 170 196 12,000  Level Salt Lake Center
08:20PM 44.0517 -108.2367 130° Southeast 171 197 12,100  Climbing Salt Lake Center
08:21PM 44.0203 -108.1867 131° Southeast 172 198 12,000 -120 Descending Salt Lake Center
08:22PM 43.9881 -108.1378 132° Southeast 172 198 11,900 -60 Descending Salt Lake Center
08:23PM 43.9561 -108.0869 131° Southeast 173 199 11,900  Level Salt Lake Center
08:24PM 43.9264 -108.0389 131° Southeast 171 197 11,900  Level Salt Lake Center
08:25PM 43.8950 -107.9906 132° Southeast 169 194 11,900  Level Salt Lake Center
08:26PM 43.8639 -107.9414 131° Southeast 169 194 11,900  Level Salt Lake Center
08:27PM 43.8281 -107.8836 131° Southeast 168 193 11,900  Level Salt Lake Center
08:28PM 43.7975 -107.8356 131° Southeast 167 192 11,900  Level Salt Lake Center
08:29PM 43.7658 -107.7878 133° Southeast 168 193 11,900  Level Salt Lake Center
08:30PM 43.7347 -107.7394 132° Southeast 168 193 12,000  Climbing Salt Lake Center
08:31PM 43.7042 -107.6908 131° Southeast 168 193 12,000 -60 Level Salt Lake Center
08:32PM 43.6728 -107.6408 131° Southeast 169 194 11,900 -60 Descending Salt Lake Center
08:34PM 43.6411 -107.5933 133° Southeast 170 196 11,900  Level Salt Lake Center
08:35PM 43.6094 -107.5453 132° Southeast 170 196 11,900  Level Salt Lake Center
08:36PM 43.5722 -107.4858 131° Southeast 170 196 11,900  Level Salt Lake Center
08:37PM 43.5403 -107.4367 132° Southeast 171 197 11,900  Level Salt Lake Center
08:38PM 43.5089 -107.3867 131° Southeast 172 198 11,900  Level Salt Lake Center
08:39PM 43.4772 -107.3408 134° Southeast 170 196 11,900  Level Salt Lake Center
08:40PM 43.4464 -107.2939 132° Southeast 168 193 12,000  Climbing Salt Lake Center
08:41PM 43.4164 -107.2461 131° Southeast 166 191 12,000  Level Salt Lake Center
08:42PM 43.3858 -107.1989 132° Southeast 165 190 12,000  Level Salt Lake Center
08:43PM 43.3492 -107.1422 132° Southeast 165 190 12,000  Level Salt Lake Center
08:44PM 43.3189 -107.0944 131° Southeast 166 191 12,000  Level Salt Lake Center
08:45PM 43.2869 -107.0486 134° Southeast 167 192 12,000 -60 Level Salt Lake Center
08:46PM 43.2564 -106.9997 131° Southeast 168 193 11,900 -180 Descending Salt Lake Center
08:47PM 43.2236 -106.9511 133° Southeast 172 198 11,700 -300 Descending Salt Lake Center
08:48PM 43.1906 -106.9003 132° Southeast 173 199 11,300 -480 Descending Salt Lake Center
08:49PM 43.1539 -106.8428 131° Southeast 178 205 10,800 -660 Descending Salt Lake Center
08:50PM 43.1192 -106.7950 135° Southeast 182 209 10,000 -780 Descending Salt Lake Center
08:51PM 43.0983 -106.7461 120° Southeast 183 211 9,400 -840 Descending Denver Center
08:52PM 43.0689 -106.6803 121° Southeast 182 209 8,500 -840 Descending Denver Center
08:53PM 43.0419 -106.6261 124° Southeast 181 208 7,800 -720 Descending Denver Center
08:54PM 43.0142 -106.5739 126° Southeast 179 206 7,100 -600 Descending Denver Center
08:55PM 42.9819 -106.5189 129° Southeast 177 204 6,600 -540 Descending Denver Center